Sibel J — 5IM270 — position and weather

sailwx.info

Track history (hours):
 
Tides and Currents Weather Stations Pressure Air Temp Water Temp Dewpoint Dewpoint Depression Visibility Wind Speed Wind Dir Waves Ship Positions

Sibel J

Last reported at 2016-May-22 02:28 UTC. Time now 2016-May-26 04:45 UTC.
Position N 40°59' E 028°60'.

Length 100 m; draft 2.8 m.

Type: Cargo ship. MMSI: 677017000.

Date/timePositionNaut miles runAvg speedWind from/ knotsBaromVisibWave heightAir tempDewpointWater temp
2016-May-22 02:28N 40°59' E 028°60'7 6.6
2016-May-22 01:27N 40°53' E 029°00'7 7.5
2016-May-22 00:30N 40°46' E 028°58'2 2.1
2016-May-21 23:28N 40°44' E 028°56'1 1.5
2016-May-21 22:32N 40°45' E 028°57'1 1.5
2016-May-21 21:33N 40°46' E 028°58'2 1.6
2016-May-21 20:32N 40°48' E 028°59'3 2.4
2016-May-21 19:29N 40°48' E 028°56'10 0.2
2016-May-19 20:33N 40°48' E 028°42'8 7.4
2016-May-19 19:29N 40°53' E 028°50'7 7.0
2016-May-19 18:28N 40°58' E 028°57'  
2016-May-13 00:33N 40°57' E 028°55'  
Track history (hours):
 
Tides and Currents Weather Stations Pressure Air Temp Water Temp Dewpoint Dewpoint Depression Visibility Wind Speed Wind Dir Waves Ship Positions

Sibel J

Last reported at 2016-May-22 02:28 UTC. Time now 2016-May-26 04:45 UTC.
Position N 40°59' E 028°60'.

Length 100 m; draft 2.8 m.

Type: Cargo ship. MMSI: 677017000.

Date/timePositionNaut miles runAvg speedWind from/ knotsBaromVisibWave heightAir tempDewpointWater temp
2016-May-22 02:28N 40°59' E 028°60'7 6.6
2016-May-22 01:27N 40°53' E 029°00'7 7.5
2016-May-22 00:30N 40°46' E 028°58'2 2.1
2016-May-21 23:28N 40°44' E 028°56'1 1.5
2016-May-21 22:32N 40°45' E 028°57'1 1.5
2016-May-21 21:33N 40°46' E 028°58'2 1.6
2016-May-21 20:32N 40°48' E 028°59'3 2.4
2016-May-21 19:29N 40°48' E 028°56'10 0.2
2016-May-19 20:33N 40°48' E 028°42'8 7.4
2016-May-19 19:29N 40°53' E 028°50'7 7.0
2016-May-19 18:28N 40°58' E 028°57'  
2016-May-13 00:33N 40°57' E 028°55'  

Dump ship's entire track history